createdAt,value
2023-05-22T00:02:08.397Z,13.80
2023-05-22T00:04:35.676Z,13.80
2023-05-22T00:07:04.008Z,13.80
2023-05-22T00:09:31.548Z,13.70
2023-05-22T00:11:59.096Z,13.70
2023-05-22T00:14:26.271Z,13.70
2023-05-22T00:16:56.659Z,13.70
2023-05-22T00:19:23.812Z,13.60
2023-05-22T00:21:51.533Z,13.60
2023-05-22T00:24:18.649Z,13.60
2023-05-22T00:26:45.753Z,13.60
2023-05-22T00:29:12.795Z,13.60
2023-05-22T00:31:39.957Z,13.50
2023-05-22T00:34:07.080Z,13.50
2023-05-22T00:36:34.244Z,13.50
2023-05-22T00:39:01.250Z,13.50
2023-05-22T00:41:28.176Z,13.50
2023-05-22T00:43:55.019Z,13.50
2023-05-22T00:46:22.977Z,13.50
2023-05-22T00:48:50.494Z,13.40
2023-05-22T00:51:17.655Z,13.40
2023-05-22T00:53:45.148Z,13.40
2023-05-22T00:56:12.580Z,13.40
2023-05-22T00:58:39.544Z,13.40
2023-05-22T01:01:09.766Z,13.40
2023-05-22T01:03:37.580Z,13.30
2023-05-22T01:06:04.836Z,13.30
2023-05-22T01:08:32.019Z,13.30
2023-05-22T01:11:10.530Z,13.30
2023-05-22T01:13:53.890Z,13.20
2023-05-22T01:16:29.776Z,13.20
2023-05-22T01:19:02.904Z,13.20
2023-05-22T01:21:30.339Z,13.20
2023-05-22T01:24:13.951Z,13.20
2023-05-22T01:26:40.884Z,13.10
2023-05-22T01:29:10.924Z,13.10
2023-05-22T01:31:40.037Z,13.10
2023-05-22T01:34:09.463Z,13.10
2023-05-22T01:36:37.402Z,13.10
2023-05-22T01:39:06.597Z,13.10
2023-05-22T01:41:34.333Z,13.00
2023-05-22T01:44:01.912Z,13.00
2023-05-22T01:46:30.373Z,13.00
2023-05-22T01:48:57.920Z,13.00
2023-05-22T01:51:34.093Z,12.90
2023-05-22T01:54:06.209Z,12.90
2023-05-22T01:56:55.014Z,12.90
2023-05-22T01:59:30.917Z,12.90
2023-05-22T02:02:00.886Z,12.90
2023-05-22T02:04:30.025Z,12.90
2023-05-22T02:06:57.993Z,12.80
2023-05-22T02:09:28.158Z,12.80
2023-05-22T02:11:57.833Z,12.80
2023-05-22T02:14:25.156Z,12.80
2023-05-22T02:16:52.553Z,12.80
2023-05-22T02:19:19.631Z,12.70
2023-05-22T02:21:47.167Z,12.70
2023-05-22T02:24:14.079Z,12.80
2023-05-22T02:26:42.555Z,12.80
2023-05-22T02:29:09.552Z,12.70
2023-05-22T02:31:36.769Z,12.70
2023-05-22T02:34:05.419Z,12.70
2023-05-22T02:36:33.145Z,12.70
2023-05-22T02:39:00.569Z,12.70
2023-05-22T02:41:27.627Z,12.70
2023-05-22T02:43:55.087Z,12.60
2023-05-22T02:46:22.146Z,12.70
2023-05-22T02:48:49.196Z,12.60
2023-05-22T02:51:16.368Z,12.60
2023-05-22T02:53:43.380Z,12.60
2023-05-22T02:56:11.306Z,12.60
2023-05-22T02:58:38.637Z,12.60
2023-05-22T03:01:09.228Z,12.60
2023-05-22T03:03:36.432Z,12.60
2023-05-22T03:06:04.291Z,12.60
2023-05-22T03:08:33.053Z,12.50
2023-05-22T03:11:00.441Z,12.50
2023-05-22T03:13:27.383Z,12.50
2023-05-22T03:15:54.434Z,12.50
2023-05-22T03:18:22.013Z,12.40
2023-05-22T03:20:49.564Z,12.40
2023-05-22T03:23:16.698Z,12.40
2023-05-22T03:25:44.567Z,12.40
2023-05-22T03:28:11.496Z,12.40
2023-05-22T03:30:41.060Z,12.30
2023-05-22T03:33:13.837Z,12.30
2023-05-22T03:35:40.844Z,12.30
2023-05-22T03:38:07.777Z,12.30
2023-05-22T03:40:34.873Z,12.30
2023-05-22T03:43:01.861Z,12.30
2023-05-22T03:45:28.962Z,12.30
2023-05-22T03:47:58.145Z,12.30
2023-05-22T03:50:25.065Z,12.30
2023-05-22T03:52:51.958Z,12.30
2023-05-22T03:55:19.099Z,12.30
2023-05-22T03:57:46.815Z,12.30
2023-05-22T04:00:13.999Z,12.30
2023-05-22T04:02:48.302Z,12.20
2023-05-22T04:05:15.352Z,12.30
2023-05-22T04:07:43.744Z,12.20
2023-05-22T04:10:10.993Z,12.20
2023-05-22T04:12:37.934Z,12.20
2023-05-22T04:15:05.119Z,12.20
2023-05-22T04:17:35.129Z,12.20
2023-05-22T04:20:05.461Z,12.20
2023-05-22T04:22:33.764Z,12.20
2023-05-22T04:25:00.796Z,12.20
2023-05-22T04:27:29.837Z,12.10
2023-05-22T04:29:57.001Z,12.10
2023-05-22T04:32:25.128Z,12.10
2023-05-22T04:34:52.348Z,12.10
2023-05-22T04:37:20.463Z,12.10
2023-05-22T04:39:53.071Z,12.10
2023-05-22T04:42:20.617Z,12.10
2023-05-22T04:44:48.439Z,12.10
2023-05-22T04:47:15.460Z,12.10
2023-05-22T04:49:43.747Z,12.10
2023-05-22T04:52:11.667Z,12.10
2023-05-22T04:54:43.428Z,12.10
2023-05-22T04:57:10.549Z,12.10
2023-05-22T04:59:41.499Z,12.10
2023-05-22T05:02:09.419Z,12.10
2023-05-22T05:04:36.522Z,12.10
2023-05-22T05:07:04.598Z,12.10
2023-05-22T05:09:32.053Z,12.10
2023-05-22T05:11:59.275Z,12.10
2023-05-22T05:14:26.230Z,12.10
2023-05-22T05:16:53.304Z,12.10
2023-05-22T05:19:23.999Z,12.10
2023-05-22T05:21:51.013Z,12.10
2023-05-22T05:24:18.494Z,12.10
2023-05-22T05:26:46.187Z,12.10
2023-05-22T05:29:13.533Z,12.20
2023-05-22T05:31:48.348Z,12.20
2023-05-22T05:34:31.632Z,12.20
2023-05-22T05:37:03.560Z,12.20
2023-05-22T05:39:31.292Z,12.20
2023-05-22T05:42:00.852Z,12.10
2023-05-22T05:44:28.094Z,12.20
2023-05-22T05:46:55.323Z,12.20
2023-05-22T05:49:22.374Z,12.20
2023-05-22T05:51:49.541Z,12.20
2023-05-22T05:54:18.334Z,12.30
2023-05-22T05:56:46.500Z,12.30
2023-05-22T05:59:13.460Z,12.40
2023-05-22T06:02:12.020Z,12.40
2023-05-22T06:04:39.132Z,12.40
2023-05-22T06:07:06.523Z,12.50
2023-05-22T06:09:59.906Z,12.50
2023-05-22T06:12:40.244Z,12.50
2023-05-22T06:15:07.697Z,12.60
2023-05-22T06:17:35.202Z,12.70
2023-05-22T06:20:02.220Z,12.70
2023-05-22T06:22:31.544Z,12.70
2023-05-22T06:24:59.487Z,12.80
2023-05-22T06:27:29.666Z,12.80
2023-05-22T06:29:57.006Z,12.90
2023-05-22T06:32:28.349Z,12.90
2023-05-22T06:34:55.543Z,12.90
2023-05-22T06:37:22.649Z,12.90
2023-05-22T06:39:49.786Z,13.00
2023-05-22T06:42:33.050Z,13.10
2023-05-22T06:45:20.057Z,13.10
2023-05-22T06:48:10.276Z,13.20
2023-05-22T06:50:45.564Z,13.20
2023-05-22T06:53:12.769Z,13.30
2023-05-22T06:55:41.044Z,13.40
2023-05-22T06:58:19.888Z,13.40
2023-05-22T07:00:46.982Z,13.50
2023-05-22T07:03:18.874Z,13.50
2023-05-22T07:06:06.367Z,13.60
2023-05-22T07:08:34.154Z,13.70
2023-05-22T07:11:02.160Z,13.70
2023-05-22T07:13:32.148Z,13.80
2023-05-22T07:15:59.187Z,13.80
2023-05-22T07:18:26.258Z,13.90
2023-05-22T07:20:53.282Z,13.90
2023-05-22T07:23:24.446Z,13.90
2023-05-22T07:25:53.319Z,14.00
2023-05-22T07:28:27.436Z,14.00
2023-05-22T07:31:02.004Z,14.10
2023-05-22T07:33:30.460Z,14.20
2023-05-22T07:35:57.946Z,14.20
2023-05-22T07:38:25.764Z,14.20
2023-05-22T07:40:58.311Z,14.30
2023-05-22T07:43:26.152Z,14.40
2023-05-22T07:45:54.352Z,14.40
2023-05-22T07:48:24.864Z,14.50
2023-05-22T07:50:51.930Z,14.60
2023-05-22T07:53:18.937Z,14.60
2023-05-22T07:55:49.884Z,14.70
2023-05-22T07:58:20.100Z,14.90
2023-05-22T08:00:48.179Z,14.90
2023-05-22T08:03:15.198Z,15.10
2023-05-22T08:05:42.234Z,15.20
2023-05-22T08:08:10.577Z,15.30
2023-05-22T08:10:47.203Z,15.50
2023-05-22T08:13:24.487Z,15.60
2023-05-22T08:15:51.797Z,15.80
2023-05-22T08:18:29.286Z,15.90
2023-05-22T08:20:56.842Z,16.00
2023-05-22T08:23:23.803Z,16.20
2023-05-22T08:25:51.013Z,16.30
2023-05-22T08:28:17.997Z,16.30
2023-05-22T08:30:45.106Z,16.40
2023-05-22T08:33:12.454Z,16.50
2023-05-22T08:35:39.733Z,16.60
2023-05-22T08:38:06.691Z,16.70
2023-05-22T08:40:42.575Z,16.80
2023-05-22T08:43:11.542Z,16.90
2023-05-22T08:45:42.483Z,17.00
2023-05-22T08:48:11.664Z,17.20
2023-05-22T08:50:42.044Z,17.20
2023-05-22T08:53:11.400Z,17.40
2023-05-22T08:55:38.396Z,17.50
2023-05-22T08:58:05.576Z,17.60
2023-05-22T09:00:33.521Z,17.70
2023-05-22T09:03:00.623Z,17.80
2023-05-22T09:05:27.767Z,17.90
2023-05-22T09:07:56.543Z,18.00
2023-05-22T09:10:25.659Z,18.10
2023-05-22T09:13:04.342Z,18.20
2023-05-22T09:15:32.493Z,18.20
2023-05-22T09:17:59.982Z,18.30
2023-05-22T09:20:27.023Z,18.40
2023-05-22T09:22:53.982Z,18.40
2023-05-22T09:25:21.733Z,18.50
2023-05-22T09:27:49.005Z,18.50
2023-05-22T09:30:16.548Z,18.60
2023-05-22T09:32:43.823Z,18.60
2023-05-22T09:35:10.841Z,18.70
2023-05-22T09:37:37.856Z,18.80
2023-05-22T09:40:06.103Z,18.90
2023-05-22T09:42:36.166Z,18.90
2023-05-22T09:45:06.767Z,19.00
2023-05-22T09:47:36.862Z,19.00
2023-05-22T09:50:06.538Z,19.10
2023-05-22T09:52:35.030Z,19.10
2023-05-22T09:55:08.827Z,19.20
2023-05-22T09:57:48.360Z,19.30
2023-05-22T10:00:18.187Z,19.30
2023-05-22T10:02:47.016Z,19.40
2023-05-22T10:05:21.989Z,19.50
2023-05-22T10:07:50.600Z,19.60
2023-05-22T10:10:18.673Z,19.70
2023-05-22T10:12:50.580Z,19.80
2023-05-22T10:15:17.985Z,19.90
2023-05-22T10:17:45.296Z,19.90
2023-05-22T10:20:12.740Z,20.00
2023-05-22T10:22:40.549Z,20.00
2023-05-22T10:25:10.435Z,20.10
2023-05-22T10:27:38.278Z,20.30
2023-05-22T10:30:28.371Z,20.50
2023-05-22T10:33:18.236Z,20.70
2023-05-22T10:35:56.626Z,21.00
2023-05-22T10:38:39.024Z,21.20
2023-05-22T10:41:06.429Z,21.50
2023-05-22T10:43:33.379Z,21.90
2023-05-22T10:46:04.328Z,22.60
2023-05-22T10:48:38.490Z,23.20
2023-05-22T10:51:06.839Z,24.00
2023-05-22T10:53:34.471Z,24.70
2023-05-22T10:56:09.830Z,25.30
2023-05-22T10:58:37.461Z,25.90
2023-05-22T11:01:12.971Z,26.50
2023-05-22T11:03:53.504Z,27.00
2023-05-22T11:06:49.873Z,27.60
2023-05-22T11:09:33.616Z,28.10
2023-05-22T11:12:20.650Z,28.50
2023-05-22T11:15:08.040Z,28.90
2023-05-22T11:17:46.404Z,29.40
2023-05-22T11:20:16.323Z,29.70
2023-05-22T11:22:49.695Z,29.90
2023-05-22T11:25:18.045Z,30.10
2023-05-22T11:27:45.554Z,30.30
2023-05-22T11:30:13.251Z,30.50
2023-05-22T11:32:44.551Z,30.80
2023-05-22T11:35:15.629Z,31.00
2023-05-22T11:37:42.768Z,31.20
2023-05-22T11:40:10.142Z,31.40
2023-05-22T11:42:37.841Z,31.60
2023-05-22T11:45:05.163Z,31.80
2023-05-22T11:47:32.452Z,32.10
2023-05-22T11:50:02.188Z,32.20
2023-05-22T11:52:33.527Z,32.30
2023-05-22T11:55:00.630Z,32.40
2023-05-22T11:57:28.076Z,32.40
2023-05-22T11:59:55.136Z,32.40
2023-05-22T12:02:22.137Z,32.40
2023-05-22T12:04:53.853Z,32.30
2023-05-22T12:07:21.670Z,32.20
2023-05-22T12:09:49.195Z,32.20
2023-05-22T12:12:16.597Z,32.30
2023-05-22T12:14:46.873Z,32.40
2023-05-22T12:17:14.089Z,32.50
2023-05-22T12:19:41.461Z,32.60
2023-05-22T12:22:08.868Z,32.80
2023-05-22T12:24:39.614Z,32.80
2023-05-22T12:27:12.895Z,33.00
2023-05-22T12:29:40.340Z,33.10
2023-05-22T12:32:08.861Z,33.00
2023-05-22T12:34:36.619Z,33.00
2023-05-22T12:37:03.614Z,32.90
2023-05-22T12:39:30.648Z,32.80
2023-05-22T12:41:57.555Z,32.80
2023-05-22T12:44:24.535Z,32.80
2023-05-22T12:46:52.327Z,32.90
2023-05-22T12:49:19.212Z,33.00
2023-05-22T12:51:46.133Z,33.10
2023-05-22T12:54:14.866Z,33.10
2023-05-22T12:56:41.782Z,33.10
2023-05-22T12:59:08.776Z,33.00
2023-05-22T13:01:35.912Z,32.80
2023-05-22T13:04:02.889Z,32.70
2023-05-22T13:06:30.583Z,32.60
2023-05-22T13:08:57.624Z,32.50
2023-05-22T13:11:26.639Z,32.40
2023-05-22T13:13:53.694Z,32.40
2023-05-22T13:16:20.875Z,32.20
2023-05-22T13:18:48.160Z,32.20
2023-05-22T13:21:15.159Z,32.10
2023-05-22T13:23:42.244Z,32.10
2023-05-22T13:26:09.370Z,32.00
2023-05-22T13:28:36.295Z,31.80
2023-05-22T13:31:03.237Z,31.70
2023-05-22T13:33:30.190Z,31.50
2023-05-22T13:35:57.078Z,31.20
2023-05-22T13:38:24.063Z,30.90
2023-05-22T13:40:52.036Z,30.60
2023-05-22T13:43:19.044Z,30.00
2023-05-22T13:45:46.060Z,29.70
2023-05-22T13:48:13.033Z,29.40
2023-05-22T13:50:40.682Z,29.10
2023-05-22T13:53:07.704Z,28.80
2023-05-22T13:55:34.768Z,28.60
2023-05-22T13:58:01.738Z,28.50
2023-05-22T14:00:28.713Z,28.30
2023-05-22T14:02:55.822Z,28.20
2023-05-22T14:05:23.591Z,28.10
2023-05-22T14:07:50.682Z,27.90
2023-05-22T14:10:17.797Z,27.80
2023-05-22T14:12:44.778Z,27.70
2023-05-22T14:33:36.959Z,26.90
2023-05-22T14:36:04.092Z,26.70
2023-05-22T14:38:34.897Z,26.50
2023-05-22T14:41:01.985Z,26.30
2023-05-22T14:43:31.070Z,26.10
2023-05-22T14:45:59.330Z,26.00
2023-05-22T14:48:26.652Z,25.80
2023-05-22T14:50:53.993Z,25.60
2023-05-22T14:53:23.307Z,25.50
2023-05-22T14:55:52.311Z,25.40
2023-05-22T14:58:19.279Z,25.30
2023-05-22T15:00:47.350Z,25.20
2023-05-22T15:03:14.462Z,25.10
2023-05-22T15:05:41.606Z,25.00
2023-05-22T15:08:08.847Z,24.90
2023-05-22T15:10:37.849Z,24.90
2023-05-22T15:13:04.838Z,24.80
2023-05-22T15:15:33.895Z,24.70
2023-05-22T15:18:02.880Z,24.60
2023-05-22T15:20:32.003Z,24.50
2023-05-22T15:23:01.245Z,24.40
2023-05-22T15:25:28.271Z,24.30
2023-05-22T15:27:57.352Z,24.30
2023-05-22T15:30:24.284Z,24.20
2023-05-22T15:32:53.263Z,24.10
2023-05-22T15:35:21.555Z,24.10
2023-05-22T15:37:50.525Z,24.00
2023-05-22T15:40:22.650Z,23.90
2023-05-22T15:42:52.031Z,23.90
2023-05-22T15:45:19.093Z,23.90
2023-05-22T15:47:50.170Z,23.80
2023-05-22T15:50:17.704Z,23.70
2023-05-22T15:52:46.752Z,23.70
2023-05-22T15:55:13.764Z,23.60
2023-05-22T15:57:43.142Z,23.60
2023-05-22T16:00:12.767Z,23.60
2023-05-22T16:02:41.940Z,23.50
2023-05-22T16:05:11.245Z,23.50
2023-05-22T16:07:38.407Z,23.50
2023-05-22T16:10:07.678Z,23.40
2023-05-22T16:12:34.683Z,23.40
2023-05-22T16:15:02.809Z,23.30
2023-05-22T16:17:32.986Z,23.20
2023-05-22T16:20:02.122Z,23.20
2023-05-22T16:22:44.151Z,23.10
2023-05-22T16:25:17.547Z,23.10
2023-05-22T16:27:46.588Z,23.00
2023-05-22T16:30:17.164Z,23.00
2023-05-22T16:32:48.449Z,23.00
2023-05-22T16:35:19.732Z,23.00
2023-05-22T16:37:48.798Z,22.90
2023-05-22T16:40:18.705Z,22.90
2023-05-22T16:42:45.835Z,22.90
2023-05-22T16:45:14.866Z,22.80
2023-05-22T16:47:41.922Z,22.70
2023-05-22T16:50:11.084Z,22.70
2023-05-22T16:52:38.083Z,22.60
2023-05-22T16:55:05.389Z,22.60
2023-05-22T16:57:32.407Z,22.60
2023-05-22T17:00:01.686Z,22.50
2023-05-22T17:02:29.089Z,22.50
2023-05-22T17:04:58.200Z,22.40
2023-05-22T17:07:27.288Z,22.30
2023-05-22T17:09:54.246Z,22.30
2023-05-22T17:12:21.264Z,22.20
2023-05-22T17:14:50.243Z,22.10
2023-05-22T17:17:19.376Z,22.10
2023-05-22T17:19:48.367Z,22.00
2023-05-22T17:22:15.410Z,22.00
2023-05-22T17:24:45.244Z,21.90
2023-05-22T17:27:14.168Z,21.90
2023-05-22T17:29:49.691Z,21.80
2023-05-22T17:32:21.578Z,21.80
2023-05-22T17:34:48.986Z,21.70
2023-05-22T17:37:16.068Z,21.60
2023-05-22T17:39:44.471Z,21.60
2023-05-22T17:42:11.455Z,21.50
2023-05-22T17:44:38.392Z,21.50
2023-05-22T17:47:07.394Z,21.40
2023-05-22T17:49:37.222Z,21.40
2023-05-22T17:52:04.266Z,21.40
2023-05-22T17:54:36.512Z,21.30
2023-05-22T17:57:05.568Z,21.30
2023-05-22T17:59:32.863Z,21.30
2023-05-22T18:01:59.885Z,21.20
2023-05-22T18:04:29.180Z,21.10
2023-05-22T18:06:58.182Z,21.00
2023-05-22T18:09:25.203Z,21.00
2023-05-22T18:11:54.548Z,20.90
2023-05-22T18:14:21.594Z,20.90
2023-05-22T18:16:50.561Z,20.80
2023-05-22T18:19:19.533Z,20.80
2023-05-22T18:21:48.609Z,20.70
2023-05-22T18:24:17.591Z,20.70
2023-05-22T18:26:46.504Z,20.60
2023-05-22T18:29:13.420Z,20.50
2023-05-22T18:31:43.179Z,20.50
2023-05-22T18:34:10.225Z,20.40
2023-05-22T18:36:39.962Z,20.40
2023-05-22T18:39:09.416Z,20.30
2023-05-22T18:41:38.469Z,20.30
2023-05-22T18:44:05.497Z,20.30
2023-05-22T18:46:34.608Z,20.20
2023-05-22T18:49:03.768Z,20.20
2023-05-22T18:51:31.765Z,20.20
2023-05-22T18:54:02.750Z,20.10
2023-05-22T18:56:31.919Z,20.10
2023-05-22T18:58:58.818Z,20.10
2023-05-22T19:01:26.046Z,20.00
2023-05-22T19:03:53.103Z,20.00
2023-05-22T19:06:20.093Z,19.90
2023-05-22T19:08:49.186Z,19.90
2023-05-22T19:11:16.152Z,19.90
2023-05-22T19:13:45.201Z,19.90
2023-05-22T19:16:13.825Z,19.80
2023-05-22T19:18:42.857Z,19.80
2023-05-22T19:21:11.946Z,19.70
2023-05-22T19:23:41.032Z,19.70
2023-05-22T19:26:08.037Z,19.60
2023-05-22T19:28:34.991Z,19.60
2023-05-22T19:31:03.268Z,19.50
2023-05-22T19:33:32.361Z,19.50
2023-05-22T19:36:06.556Z,19.50
2023-05-22T19:38:36.003Z,19.40
2023-05-22T19:41:02.956Z,19.40
2023-05-22T19:43:31.399Z,19.30
2023-05-22T19:46:00.508Z,19.30
2023-05-22T19:48:29.825Z,19.30
2023-05-22T19:50:58.784Z,19.20
2023-05-22T19:53:25.941Z,19.20
2023-05-22T19:55:53.013Z,19.10
2023-05-22T19:58:19.955Z,19.10
2023-05-22T20:00:48.687Z,19.00
2023-05-22T20:03:18.128Z,19.00
2023-05-22T20:05:47.313Z,18.90
2023-05-22T20:08:14.331Z,18.90
2023-05-22T20:10:41.673Z,18.80
2023-05-22T20:13:08.807Z,18.70
2023-05-22T20:15:35.852Z,18.70
2023-05-22T20:18:05.436Z,18.60
2023-05-22T20:20:34.496Z,18.60
2023-05-22T20:23:03.498Z,18.60
2023-05-22T20:25:30.492Z,18.50
2023-05-22T20:27:59.546Z,18.50
2023-05-22T20:30:28.540Z,18.40
2023-05-22T20:32:57.575Z,18.40
2023-05-22T20:35:26.436Z,18.30
2023-05-22T20:37:55.709Z,18.30
2023-05-22T20:40:26.575Z,18.20
2023-05-22T20:42:57.150Z,18.20
2023-05-22T20:45:26.568Z,18.10
2023-05-22T20:47:55.898Z,18.10
2023-05-22T20:50:24.974Z,18.00
2023-05-22T20:52:54.202Z,18.00
2023-05-22T20:55:21.251Z,18.00
2023-05-22T20:57:48.261Z,17.90
2023-05-22T21:00:15.269Z,17.80
2023-05-22T21:02:44.234Z,17.80
2023-05-22T21:05:11.308Z,17.70
2023-05-22T21:07:38.291Z,17.70
2023-05-22T21:10:05.391Z,17.60
2023-05-22T21:12:34.494Z,17.60
2023-05-22T21:15:04.086Z,17.50
2023-05-22T21:17:31.240Z,17.50
2023-05-22T21:20:05.889Z,17.40
2023-05-22T21:22:32.933Z,17.40
2023-05-22T21:25:02.060Z,17.40
2023-05-22T21:27:29.038Z,17.30
2023-05-22T21:29:58.112Z,17.30
2023-05-22T21:32:27.134Z,17.30
2023-05-22T21:34:56.109Z,17.20
2023-05-22T21:37:23.162Z,17.20
2023-05-22T21:39:52.131Z,17.20
2023-05-22T21:42:19.817Z,17.10
2023-05-22T21:44:46.777Z,17.10
2023-05-22T21:47:13.723Z,17.10
2023-05-22T21:49:43.206Z,17.10
2023-05-22T21:52:10.160Z,17.00
2023-05-22T21:54:37.176Z,17.00
2023-05-22T21:57:06.298Z,17.00
2023-05-22T21:59:38.350Z,16.90
2023-05-22T22:02:05.457Z,16.90
2023-05-22T22:04:32.507Z,16.90
2023-05-22T22:07:01.435Z,16.80
2023-05-22T22:09:28.360Z,16.80
2023-05-22T22:11:57.328Z,16.80
2023-05-22T22:14:24.404Z,16.80
2023-05-22T22:16:54.564Z,16.70
2023-05-22T22:19:22.797Z,16.70
2023-05-22T22:21:50.123Z,16.70
2023-05-22T22:24:17.127Z,16.70
2023-05-22T22:26:49.525Z,16.70
2023-05-22T22:29:16.740Z,16.70
2023-05-22T22:31:46.114Z,16.60
2023-05-22T22:34:13.214Z,16.60
2023-05-22T22:36:40.208Z,16.60
2023-05-22T22:39:09.238Z,16.60
2023-05-22T22:41:38.220Z,16.50
2023-05-22T22:44:05.182Z,16.50
2023-05-22T22:46:32.343Z,16.50
2023-05-22T22:49:01.821Z,16.50
2023-05-22T22:51:31.972Z,16.40
2023-05-22T22:53:58.936Z,16.40
2023-05-22T22:56:29.447Z,16.40
2023-05-22T22:58:57.345Z,16.30
2023-05-22T23:01:26.434Z,16.30
2023-05-22T23:03:53.451Z,16.30
2023-05-22T23:06:20.412Z,16.30
2023-05-22T23:08:49.647Z,16.20
2023-05-22T23:11:16.851Z,16.20
2023-05-22T23:13:45.956Z,16.10
2023-05-22T23:16:12.987Z,16.10
2023-05-22T23:18:42.327Z,16.10
2023-05-22T23:21:11.408Z,16.00
2023-05-22T23:23:40.334Z,16.00
2023-05-22T23:26:07.192Z,16.00
2023-05-22T23:28:34.180Z,15.90
2023-05-22T23:31:01.290Z,15.90
2023-05-22T23:33:28.317Z,15.80
2023-05-22T23:35:56.469Z,15.80
2023-05-22T23:38:23.423Z,15.80
2023-05-22T23:40:52.402Z,15.70
2023-05-22T23:43:20.922Z,15.70
2023-05-22T23:45:49.955Z,15.70
2023-05-22T23:48:16.985Z,15.60
2023-05-22T23:50:46.016Z,15.60
2023-05-22T23:53:15.061Z,15.60
2023-05-22T23:55:44.074Z,15.50
2023-05-22T23:58:11.075Z,15.50
